sensor_id;sensor_type;location;lat;lon;timestamp;pressure;altitude;pressure_sealevel;temperature;humidity
61697;BME280;47610;52.252;20.922;2023-06-22T00:01:38;100304.19;;;22.32;100.00
61697;BME280;47610;52.252;20.922;2023-06-22T00:06:41;100311.00;;;22.24;100.00
61697;BME280;47610;52.252;20.922;2023-06-22T00:11:44;100310.84;;;22.22;100.00
61697;BME280;47610;52.252;20.922;2023-06-22T00:16:47;100314.40;;;22.28;100.00
61697;BME280;47610;52.252;20.922;2023-06-22T00:21:51;100313.79;;;22.34;100.00
61697;BME280;47610;52.252;20.922;2023-06-22T00:26:54;100319.14;;;22.40;100.00
61697;BME280;47610;52.252;20.922;2023-06-22T00:31:57;100312.34;;;22.43;100.00
61697;BME280;47610;52.252;20.922;2023-06-22T00:37:01;100301.98;;;22.42;100.00
61697;BME280;47610;52.252;20.922;2023-06-22T00:42:05;100302.08;;;22.40;100.00
61697;BME280;47610;52.252;20.922;2023-06-22T00:47:08;100303.29;;;22.40;100.00
61697;BME280;47610;52.252;20.922;2023-06-22T00:52:12;100300.79;;;22.40;100.00
61697;BME280;47610;52.252;20.922;2023-06-22T00:57:16;100300.48;;;22.41;100.00
61697;BME280;47610;52.252;20.922;2023-06-22T01:02:20;100295.30;;;22.39;100.00
61697;BME280;47610;52.252;20.922;2023-06-22T01:07:29;100290.01;;;22.35;100.00
61697;BME280;47610;52.252;20.922;2023-06-22T01:12:38;100281.52;;;22.32;100.00
61697;BME280;47610;52.252;20.922;2023-06-22T01:17:44;100277.87;;;22.25;100.00
61697;BME280;47610;52.252;20.922;2023-06-22T01:22:59;100284.09;;;22.17;100.00
61697;BME280;47610;52.252;20.922;2023-06-22T01:28:20;100277.33;;;22.10;100.00
61697;BME280;47610;52.252;20.922;2023-06-22T01:33:26;100268.64;;;22.00;100.00
61697;BME280;47610;52.252;20.922;2023-06-22T01:38:30;100267.10;;;21.97;100.00
61697;BME280;47610;52.252;20.922;2023-06-22T01:43:34;100263.55;;;21.96;100.00
61697;BME280;47610;52.252;20.922;2023-06-22T01:48:39;100271.80;;;21.94;100.00
61697;BME280;47610;52.252;20.922;2023-06-22T01:53:42;100279.11;;;21.93;100.00
61697;BME280;47610;52.252;20.922;2023-06-22T01:58:50;100282.52;;;21.93;100.00
61697;BME280;47610;52.252;20.922;2023-06-22T02:04:03;100296.23;;;21.94;100.00
61697;BME280;47610;52.252;20.922;2023-06-22T02:09:11;100307.80;;;21.96;100.00
61697;BME280;47610;52.252;20.922;2023-06-22T02:14:15;100312.91;;;21.98;100.00
61697;BME280;47610;52.252;20.922;2023-06-22T02:19:23;100317.73;;;21.98;100.00
61697;BME280;47610;52.252;20.922;2023-06-22T02:24:27;100320.44;;;21.98;100.00
61697;BME280;47610;52.252;20.922;2023-06-22T02:29:30;100319.30;;;21.97;100.00
61697;BME280;47610;52.252;20.922;2023-06-22T02:34:33;100329.02;;;21.95;100.00
61697;BME280;47610;52.252;20.922;2023-06-22T02:39:36;100337.96;;;21.95;100.00
61697;BME280;47610;52.252;20.922;2023-06-22T02:44:40;100351.18;;;21.95;100.00
61697;BME280;47610;52.252;20.922;2023-06-22T02:49:43;100361.81;;;21.94;100.00
61697;BME280;47610;52.252;20.922;2023-06-22T02:54:46;100361.55;;;21.93;100.00
61697;BME280;47610;52.252;20.922;2023-06-22T02:59:49;100373.05;;;21.92;100.00
61697;BME280;47610;52.252;20.922;2023-06-22T03:04:53;100367.42;;;21.91;100.00
61697;BME280;47610;52.252;20.922;2023-06-22T03:09:56;100371.71;;;21.90;100.00
61697;BME280;47610;52.252;20.922;2023-06-22T03:14:59;100385.36;;;21.91;100.00
61697;BME280;47610;52.252;20.922;2023-06-22T03:20:03;100391.72;;;21.93;100.00
61697;BME280;47610;52.252;20.922;2023-06-22T03:25:05;100391.80;;;21.90;100.00
61697;BME280;47610;52.252;20.922;2023-06-22T03:30:10;100392.45;;;21.88;100.00
61697;BME280;47610;52.252;20.922;2023-06-22T03:35:13;100392.95;;;21.86;100.00
61697;BME280;47610;52.252;20.922;2023-06-22T03:40:17;100397.06;;;21.87;100.00
61697;BME280;47610;52.252;20.922;2023-06-22T03:45:20;100405.30;;;21.89;100.00
61697;BME280;47610;52.252;20.922;2023-06-22T03:50:23;100418.20;;;21.95;100.00
61697;BME280;47610;52.252;20.922;2023-06-22T03:55:26;100420.25;;;22.01;100.00
61697;BME280;47610;52.252;20.922;2023-06-22T04:00:29;100420.71;;;22.06;100.00
61697;BME280;47610;52.252;20.922;2023-06-22T04:05:32;100420.23;;;22.20;100.00
61697;BME280;47610;52.252;20.922;2023-06-22T04:10:36;100424.34;;;22.73;100.00
61697;BME280;47610;52.252;20.922;2023-06-22T04:15:39;100429.86;;;23.51;100.00
61697;BME280;47610;52.252;20.922;2023-06-22T04:20:42;100432.79;;;24.61;100.00
61697;BME280;47610;52.252;20.922;2023-06-22T04:25:45;100434.29;;;25.03;100.00
61697;BME280;47610;52.252;20.922;2023-06-22T04:30:49;100446.10;;;25.14;100.00
61697;BME280;47610;52.252;20.922;2023-06-22T04:35:52;100444.59;;;24.79;100.00
61697;BME280;47610;52.252;20.922;2023-06-22T04:40:55;100439.92;;;24.45;100.00
61697;BME280;47610;52.252;20.922;2023-06-22T04:45:58;100443.23;;;24.21;100.00
61697;BME280;47610;52.252;20.922;2023-06-22T04:51:01;100444.04;;;24.00;100.00
61697;BME280;47610;52.252;20.922;2023-06-22T04:56:05;100441.32;;;23.84;100.00
61697;BME280;47610;52.252;20.922;2023-06-22T05:01:08;100439.54;;;23.77;100.00
61697;BME280;47610;52.252;20.922;2023-06-22T05:06:11;100439.35;;;23.71;100.00
61697;BME280;47610;52.252;20.922;2023-06-22T05:11:15;100435.63;;;23.63;100.00
61697;BME280;47610;52.252;20.922;2023-06-22T05:16:18;100438.54;;;23.57;100.00
61697;BME280;47610;52.252;20.922;2023-06-22T05:21:23;100435.88;;;23.54;100.00
61697;BME280;47610;52.252;20.922;2023-06-22T05:26:28;100438.14;;;23.54;100.00
61697;BME280;47610;52.252;20.922;2023-06-22T05:31:31;100445.23;;;23.56;100.00
61697;BME280;47610;52.252;20.922;2023-06-22T05:36:34;100449.84;;;23.60;100.00
61697;BME280;47610;52.252;20.922;2023-06-22T05:41:37;100460.22;;;23.58;100.00
61697;BME280;47610;52.252;20.922;2023-06-22T05:46:42;100466.23;;;23.57;100.00
61697;BME280;47610;52.252;20.922;2023-06-22T05:51:46;100475.32;;;23.61;100.00
61697;BME280;47610;52.252;20.922;2023-06-22T05:56:49;100472.89;;;23.60;100.00
61697;BME280;47610;52.252;20.922;2023-06-22T06:01:52;100465.98;;;23.60;100.00
61697;BME280;47610;52.252;20.922;2023-06-22T06:06:56;100463.49;;;23.60;100.00
61697;BME280;47610;52.252;20.922;2023-06-22T06:11:59;100484.02;;;23.62;100.00
61697;BME280;47610;52.252;20.922;2023-06-22T06:17:02;100485.41;;;23.60;100.00
61697;BME280;47610;52.252;20.922;2023-06-22T06:22:06;100493.52;;;23.54;100.00
61697;BME280;47610;52.252;20.922;2023-06-22T06:27:09;100493.33;;;23.59;100.00
61697;BME280;47610;52.252;20.922;2023-06-22T06:32:12;100491.20;;;23.81;100.00
61697;BME280;47610;52.252;20.922;2023-06-22T06:37:16;100490.43;;;24.25;100.00
61697;BME280;47610;52.252;20.922;2023-06-22T06:42:19;100490.56;;;24.69;100.00
61697;BME280;47610;52.252;20.922;2023-06-22T06:47:22;100485.73;;;24.96;100.00
61697;BME280;47610;52.252;20.922;2023-06-22T06:52:25;100483.06;;;25.22;100.00
61697;BME280;47610;52.252;20.922;2023-06-22T06:57:28;100482.91;;;25.53;100.00
61697;BME280;47610;52.252;20.922;2023-06-22T07:02:32;100488.30;;;25.83;100.00
61697;BME280;47610;52.252;20.922;2023-06-22T07:07:35;100484.13;;;25.89;100.00
61697;BME280;47610;52.252;20.922;2023-06-22T07:12:38;100475.21;;;26.12;100.00
61697;BME280;47610;52.252;20.922;2023-06-22T07:17:41;100478.29;;;26.33;100.00
61697;BME280;47610;52.252;20.922;2023-06-22T07:22:45;100491.54;;;26.55;100.00
61697;BME280;47610;52.252;20.922;2023-06-22T07:27:58;100494.74;;;26.85;100.00
61697;BME280;47610;52.252;20.922;2023-06-22T07:33:02;100499.27;;;26.90;100.00
61697;BME280;47610;52.252;20.922;2023-06-22T07:38:06;100505.47;;;26.83;100.00
61697;BME280;47610;52.252;20.922;2023-06-22T07:43:09;100499.82;;;26.77;100.00
61697;BME280;47610;52.252;20.922;2023-06-22T07:48:12;100501.09;;;26.82;100.00
61697;BME280;47610;52.252;20.922;2023-06-22T07:53:15;100501.55;;;26.80;100.00
61697;BME280;47610;52.252;20.922;2023-06-22T07:58:19;100503.61;;;26.84;100.00
61697;BME280;47610;52.252;20.922;2023-06-22T08:03:22;100506.13;;;26.91;100.00
61697;BME280;47610;52.252;20.922;2023-06-22T08:08:25;100503.02;;;27.00;100.00
61697;BME280;47610;52.252;20.922;2023-06-22T08:13:27;100497.66;;;27.30;100.00
61697;BME280;47610;52.252;20.922;2023-06-22T08:18:30;100494.52;;;27.63;100.00
61697;BME280;47610;52.252;20.922;2023-06-22T08:23:33;100497.41;;;27.94;100.00
61697;BME280;47610;52.252;20.922;2023-06-22T08:28:37;100495.30;;;28.23;100.00
61697;BME280;47610;52.252;20.922;2023-06-22T08:33:38;100500.84;;;28.40;100.00
61697;BME280;47610;52.252;20.922;2023-06-22T08:38:42;100497.84;;;28.63;100.00
61697;BME280;47610;52.252;20.922;2023-06-22T08:43:45;100499.66;;;28.88;100.00
61697;BME280;47610;52.252;20.922;2023-06-22T08:48:46;100508.31;;;29.01;100.00
61697;BME280;47610;52.252;20.922;2023-06-22T08:53:50;100510.74;;;29.22;100.00
61697;BME280;47610;52.252;20.922;2023-06-22T08:58:51;100511.28;;;29.87;99.87
61697;BME280;47610;52.252;20.922;2023-06-22T09:03:54;100520.55;;;31.01;96.62
61697;BME280;47610;52.252;20.922;2023-06-22T09:08:58;100524.48;;;31.75;94.51
61697;BME280;47610;52.252;20.922;2023-06-22T09:14:01;100523.14;;;31.52;89.11
61697;BME280;47610;52.252;20.922;2023-06-22T09:19:04;100515.47;;;30.94;90.50
61697;BME280;47610;52.252;20.922;2023-06-22T09:24:08;100511.12;;;30.78;89.17
61697;BME280;47610;52.252;20.922;2023-06-22T09:29:11;100498.00;;;30.67;85.74
61697;BME280;47610;52.252;20.922;2023-06-22T09:34:14;100496.74;;;30.89;78.78
61697;BME280;47610;52.252;20.922;2023-06-22T09:39:19;100494.68;;;31.11;76.16
61697;BME280;47610;52.252;20.922;2023-06-22T09:44:22;100504.13;;;31.55;72.27
61697;BME280;47610;52.252;20.922;2023-06-22T09:49:25;100496.20;;;32.22;66.42
61697;BME280;47610;52.252;20.922;2023-06-22T09:54:28;100496.30;;;33.15;63.73
61697;BME280;47610;52.252;20.922;2023-06-22T09:59:31;100494.04;;;33.98;61.05
61697;BME280;47610;52.252;20.922;2023-06-22T10:04:35;100494.30;;;33.61;60.77
61697;BME280;47610;52.252;20.922;2023-06-22T10:09:38;100496.73;;;33.02;61.84
61697;BME280;47610;52.252;20.922;2023-06-22T10:14:41;100490.31;;;32.51;63.14
61697;BME280;47610;52.252;20.922;2023-06-22T10:19:45;100498.06;;;32.33;65.43
61697;BME280;47610;52.252;20.922;2023-06-22T10:24:49;100497.13;;;32.12;61.74
61697;BME280;47610;52.252;20.922;2023-06-22T10:29:52;100497.34;;;31.95;64.18
61697;BME280;47610;52.252;20.922;2023-06-22T10:34:55;100487.41;;;31.97;66.14
61697;BME280;47610;52.252;20.922;2023-06-22T10:39:58;100481.56;;;32.06;66.73
61697;BME280;47610;52.252;20.922;2023-06-22T10:45:02;100477.76;;;32.04;68.31
61697;BME280;47610;52.252;20.922;2023-06-22T10:50:08;100470.30;;;31.88;68.78
61697;BME280;47610;52.252;20.922;2023-06-22T10:55:12;100473.37;;;31.80;68.98
61697;BME280;47610;52.252;20.922;2023-06-22T11:00:17;100467.31;;;31.66;70.26
61697;BME280;47610;52.252;20.922;2023-06-22T11:05:21;100468.45;;;31.55;69.97
61697;BME280;47610;52.252;20.922;2023-06-22T11:10:25;100459.89;;;31.49;69.79
61697;BME280;47610;52.252;20.922;2023-06-22T11:15:28;100457.02;;;31.34;71.25
61697;BME280;47610;52.252;20.922;2023-06-22T11:20:33;100464.13;;;31.29;71.65
61697;BME280;47610;52.252;20.922;2023-06-22T11:25:38;100458.52;;;31.28;72.32
61697;BME280;47610;52.252;20.922;2023-06-22T11:30:42;100450.73;;;31.27;67.78
61697;BME280;47610;52.252;20.922;2023-06-22T11:35:46;100454.75;;;31.31;66.63
61697;BME280;47610;52.252;20.922;2023-06-22T11:40:49;100453.44;;;31.34;70.09
61697;BME280;47610;52.252;20.922;2023-06-22T11:45:52;100455.89;;;31.32;67.47
61697;BME280;47610;52.252;20.922;2023-06-22T11:50:55;100451.73;;;31.21;66.10
61697;BME280;47610;52.252;20.922;2023-06-22T11:55:59;100452.20;;;31.24;67.32
61697;BME280;47610;52.252;20.922;2023-06-22T12:01:02;100456.06;;;31.18;71.36
61697;BME280;47610;52.252;20.922;2023-06-22T12:06:06;100450.77;;;31.18;67.20
61697;BME280;47610;52.252;20.922;2023-06-22T12:11:09;100450.02;;;31.12;68.44
61697;BME280;47610;52.252;20.922;2023-06-22T12:16:12;100441.82;;;31.10;67.68
61697;BME280;47610;52.252;20.922;2023-06-22T12:21:15;100442.99;;;31.01;69.29
61697;BME280;47610;52.252;20.922;2023-06-22T12:26:19;100439.52;;;30.81;66.22
61697;BME280;47610;52.252;20.922;2023-06-22T12:31:22;100434.96;;;30.60;69.02
61697;BME280;47610;52.252;20.922;2023-06-22T12:36:25;100428.18;;;30.49;67.41
61697;BME280;47610;52.252;20.922;2023-06-22T12:41:28;100426.22;;;30.29;67.09
61697;BME280;47610;52.252;20.922;2023-06-22T12:46:33;100419.01;;;30.11;66.60
61697;BME280;47610;52.252;20.922;2023-06-22T12:51:41;100422.52;;;29.92;63.63
61697;BME280;47610;52.252;20.922;2023-06-22T12:56:45;100430.15;;;29.83;63.72
61697;BME280;47610;52.252;20.922;2023-06-22T13:01:46;100435.35;;;29.85;66.31
61697;BME280;47610;52.252;20.922;2023-06-22T13:06:49;100430.16;;;29.77;67.48
61697;BME280;47610;52.252;20.922;2023-06-22T13:11:52;100416.35;;;29.63;68.82
61697;BME280;47610;52.252;20.922;2023-06-22T13:16:55;100420.97;;;29.62;71.03
61697;BME280;47610;52.252;20.922;2023-06-22T13:21:58;100416.37;;;29.66;71.96
61697;BME280;47610;52.252;20.922;2023-06-22T13:27:01;100416.38;;;29.71;69.01
61697;BME280;47610;52.252;20.922;2023-06-22T13:32:03;100416.86;;;29.74;67.51
61697;BME280;47610;52.252;20.922;2023-06-22T13:37:08;100415.56;;;29.77;67.70
61697;BME280;47610;52.252;20.922;2023-06-22T13:42:11;100417.58;;;29.84;68.51
61697;BME280;47610;52.252;20.922;2023-06-22T13:47:15;100415.64;;;29.84;67.51
61697;BME280;47610;52.252;20.922;2023-06-22T13:52:18;100416.13;;;29.87;66.02
61697;BME280;47610;52.252;20.922;2023-06-22T13:57:19;100415.15;;;29.90;63.69
61697;BME280;47610;52.252;20.922;2023-06-22T14:02:23;100418.87;;;29.95;62.11
61697;BME280;47610;52.252;20.922;2023-06-22T14:07:25;100421.63;;;29.92;63.53
61697;BME280;47610;52.252;20.922;2023-06-22T14:12:28;100417.91;;;29.83;62.06
61697;BME280;47610;52.252;20.922;2023-06-22T14:17:31;100413.55;;;29.71;62.50
61697;BME280;47610;52.252;20.922;2023-06-22T14:22:34;100414.98;;;29.58;65.87
61697;BME280;47610;52.252;20.922;2023-06-22T14:27:37;100417.98;;;29.48;67.34
61697;BME280;47610;52.252;20.922;2023-06-22T14:32:39;100418.13;;;29.44;69.86
61697;BME280;47610;52.252;20.922;2023-06-22T14:37:42;100411.15;;;29.34;69.57
61697;BME280;47610;52.252;20.922;2023-06-22T14:42:46;100411.14;;;29.19;71.00
61697;BME280;47610;52.252;20.922;2023-06-22T14:47:50;100408.85;;;29.12;68.82
61697;BME280;47610;52.252;20.922;2023-06-22T14:52:54;100403.80;;;29.05;67.91
61697;BME280;47610;52.252;20.922;2023-06-22T14:57:58;100406.17;;;28.94;69.74
61697;BME280;47610;52.252;20.922;2023-06-22T15:03:01;100409.38;;;28.77;70.85
61697;BME280;47610;52.252;20.922;2023-06-22T15:08:05;100401.95;;;28.59;71.63
61697;BME280;47610;52.252;20.922;2023-06-22T15:13:08;100398.94;;;28.57;70.29
61697;BME280;47610;52.252;20.922;2023-06-22T15:18:11;100397.48;;;28.59;68.74
61697;BME280;47610;52.252;20.922;2023-06-22T15:23:14;100393.81;;;28.49;68.74
61697;BME280;47610;52.252;20.922;2023-06-22T15:28:17;100390.91;;;28.41;69.74
61697;BME280;47610;52.252;20.922;2023-06-22T15:33:21;100391.36;;;28.33;68.19
61697;BME280;47610;52.252;20.922;2023-06-22T15:38:24;100392.20;;;28.23;68.88
61697;BME280;47610;52.252;20.922;2023-06-22T15:43:27;100392.56;;;28.17;68.19
61697;BME280;47610;52.252;20.922;2023-06-22T15:48:32;100394.96;;;28.13;66.91
61697;BME280;47610;52.252;20.922;2023-06-22T15:53:35;100389.80;;;27.99;69.47
61697;BME280;47610;52.252;20.922;2023-06-22T15:58:38;100390.17;;;27.84;69.88
61697;BME280;47610;52.252;20.922;2023-06-22T16:03:40;100388.25;;;27.79;68.41
61697;BME280;47610;52.252;20.922;2023-06-22T16:08:43;100384.80;;;27.80;69.06
61697;BME280;47610;52.252;20.922;2023-06-22T16:13:46;100386.86;;;27.85;70.77
61697;BME280;47610;52.252;20.922;2023-06-22T16:18:49;100386.52;;;27.83;72.92
61697;BME280;47610;52.252;20.922;2023-06-22T16:23:52;100387.45;;;27.79;73.25
61697;BME280;47610;52.252;20.922;2023-06-22T16:28:58;100393.99;;;27.69;75.32
61697;BME280;47610;52.252;20.922;2023-06-22T16:34:01;100386.27;;;27.63;74.07
61697;BME280;47610;52.252;20.922;2023-06-22T16:39:05;100384.05;;;27.50;74.80
61697;BME280;47610;52.252;20.922;2023-06-22T16:44:08;100378.15;;;27.47;76.91
61697;BME280;47610;52.252;20.922;2023-06-22T16:49:13;100376.27;;;27.35;78.31
61697;BME280;47610;52.252;20.922;2023-06-22T16:54:16;100373.27;;;27.23;79.37
61697;BME280;47610;52.252;20.922;2023-06-22T16:59:22;100369.64;;;27.12;80.31
61697;BME280;47610;52.252;20.922;2023-06-22T17:04:26;100369.33;;;27.05;80.55
61697;BME280;47610;52.252;20.922;2023-06-22T17:09:31;100364.23;;;27.02;81.66
61697;BME280;47610;52.252;20.922;2023-06-22T17:14:35;100362.09;;;26.99;81.77
61697;BME280;47610;52.252;20.922;2023-06-22T17:19:44;100359.45;;;26.95;79.49
61697;BME280;47610;52.252;20.922;2023-06-22T17:24:50;100350.52;;;26.82;79.20
61697;BME280;47610;52.252;20.922;2023-06-22T17:30:05;100349.98;;;26.68;79.34
61697;BME280;47610;52.252;20.922;2023-06-22T17:35:11;100344.40;;;26.59;80.67
61697;BME280;47610;52.252;20.922;2023-06-22T17:40:18;100345.64;;;26.63;80.99
61697;BME280;47610;52.252;20.922;2023-06-22T17:45:23;100342.95;;;26.74;81.31
61697;BME280;47610;52.252;20.922;2023-06-22T17:50:26;100341.11;;;26.76;81.20
61697;BME280;47610;52.252;20.922;2023-06-22T17:55:29;100341.10;;;26.82;82.03
61697;BME280;47610;52.252;20.922;2023-06-22T18:00:33;100333.59;;;26.81;82.03
61697;BME280;47610;52.252;20.922;2023-06-22T18:05:37;100336.36;;;26.85;81.33
61697;BME280;47610;52.252;20.922;2023-06-22T18:10:41;100334.27;;;27.18;79.59
61697;BME280;47610;52.252;20.922;2023-06-22T18:15:45;100335.08;;;27.44;77.85
61697;BME280;47610;52.252;20.922;2023-06-22T18:20:50;100337.37;;;27.39;77.74
61697;BME280;47610;52.252;20.922;2023-06-22T18:25:55;100334.77;;;27.04;79.01
61697;BME280;47610;52.252;20.922;2023-06-22T18:30:59;100330.10;;;26.72;81.29
61697;BME280;47610;52.252;20.922;2023-06-22T18:36:03;100326.04;;;26.44;83.47
61697;BME280;47610;52.252;20.922;2023-06-22T18:41:07;100318.02;;;26.27;85.90
61697;BME280;47610;52.252;20.922;2023-06-22T18:46:34;100318.45;;;26.17;88.23
61697;BME280;47610;52.252;20.922;2023-06-22T18:51:50;100327.81;;;26.18;90.02
61697;BME280;47610;52.252;20.922;2023-06-22T18:56:56;100332.64;;;26.30;89.99
61697;BME280;47610;52.252;20.922;2023-06-22T19:02:03;100340.70;;;26.23;89.50
61697;BME280;47610;52.252;20.922;2023-06-22T19:07:10;100348.93;;;26.13;87.78
61697;BME280;47610;52.252;20.922;2023-06-22T19:12:25;100354.13;;;26.08;87.26
61697;BME280;47610;52.252;20.922;2023-06-22T19:17:29;100349.77;;;26.08;85.80
61697;BME280;47610;52.252;20.922;2023-06-22T19:22:58;100348.63;;;26.01;85.52
61697;BME280;47610;52.252;20.922;2023-06-22T19:28:04;100357.52;;;25.98;85.04
61697;BME280;47610;52.252;20.922;2023-06-22T19:33:15;100357.48;;;25.75;86.14
61697;BME280;47610;52.252;20.922;2023-06-22T19:38:20;100352.53;;;25.68;87.43
61697;BME280;47610;52.252;20.922;2023-06-22T19:43:22;100346.81;;;25.63;88.57
61697;BME280;47610;52.252;20.922;2023-06-22T19:48:27;100338.96;;;25.55;90.27
61697;BME280;47610;52.252;20.922;2023-06-22T19:53:30;100335.77;;;25.42;91.92
61697;BME280;47610;52.252;20.922;2023-06-22T19:58:34;100334.33;;;25.27;92.29
61697;BME280;47610;52.252;20.922;2023-06-22T20:03:40;100334.95;;;25.05;93.74
61697;BME280;47610;52.252;20.922;2023-06-22T20:08:45;100332.21;;;24.86;95.75
61697;BME280;47610;52.252;20.922;2023-06-22T20:13:49;100331.83;;;24.74;98.41
61697;BME280;47610;52.252;20.922;2023-06-22T20:19:04;100324.30;;;24.67;100.00
61697;BME280;47610;52.252;20.922;2023-06-22T20:24:08;100318.02;;;25.06;99.85
61697;BME280;47610;52.252;20.922;2023-06-22T20:29:25;100309.05;;;25.31;99.61
61697;BME280;47610;52.252;20.922;2023-06-22T20:34:34;100308.59;;;25.28;99.22
61697;BME280;47610;52.252;20.922;2023-06-22T20:39:37;100302.69;;;25.09;98.47
61697;BME280;47610;52.252;20.922;2023-06-22T20:44:40;100298.47;;;24.98;96.59
61697;BME280;47610;52.252;20.922;2023-06-22T20:49:44;100303.27;;;24.87;99.39
61697;BME280;47610;52.252;20.922;2023-06-22T20:54:47;100300.27;;;24.73;100.00
61697;BME280;47610;52.252;20.922;2023-06-22T20:59:50;100297.77;;;24.63;100.00
61697;BME280;47610;52.252;20.922;2023-06-22T21:04:53;100292.06;;;24.47;100.00
61697;BME280;47610;52.252;20.922;2023-06-22T21:09:56;100284.67;;;24.28;100.00
61697;BME280;47610;52.252;20.922;2023-06-22T21:15:00;100285.10;;;24.18;100.00
61697;BME280;47610;52.252;20.922;2023-06-22T21:20:03;100288.46;;;24.09;100.00
61697;BME280;47610;52.252;20.922;2023-06-22T21:25:06;100293.63;;;24.02;100.00
61697;BME280;47610;52.252;20.922;2023-06-22T21:30:12;100283.09;;;23.94;100.00
61697;BME280;47610;52.252;20.922;2023-06-22T21:35:15;100283.42;;;23.84;100.00
61697;BME280;47610;52.252;20.922;2023-06-22T21:40:18;100279.83;;;23.71;100.00
61697;BME280;47610;52.252;20.922;2023-06-22T21:45:22;100274.13;;;23.57;100.00
61697;BME280;47610;52.252;20.922;2023-06-22T21:50:25;100286.48;;;23.47;100.00
61697;BME280;47610;52.252;20.922;2023-06-22T21:55:28;100289.05;;;23.40;100.00
61697;BME280;47610;52.252;20.922;2023-06-22T22:00:31;100293.06;;;23.29;100.00
61697;BME280;47610;52.252;20.922;2023-06-22T22:05:35;100299.73;;;23.24;99.21
61697;BME280;47610;52.252;20.922;2023-06-22T22:10:38;100309.36;;;23.17;97.23
61697;BME280;47610;52.252;20.922;2023-06-22T22:15:41;100317.48;;;23.11;96.74
61697;BME280;47610;52.252;20.922;2023-06-22T22:20:44;100310.73;;;23.02;95.99
61697;BME280;47610;52.252;20.922;2023-06-22T22:25:48;100310.05;;;22.92;95.03
61697;BME280;47610;52.252;20.922;2023-06-22T22:30:52;100303.55;;;22.82;95.43
61697;BME280;47610;52.252;20.922;2023-06-22T22:35:55;100302.13;;;22.77;96.66
61697;BME280;47610;52.252;20.922;2023-06-22T22:40:59;100309.45;;;22.67;97.48
61697;BME280;47610;52.252;20.922;2023-06-22T22:46:02;100309.72;;;22.58;97.92
61697;BME280;47610;52.252;20.922;2023-06-22T22:51:05;100312.65;;;22.63;97.71
61697;BME280;47610;52.252;20.922;2023-06-22T22:56:08;100308.41;;;22.66;96.81
61697;BME280;47610;52.252;20.922;2023-06-22T23:01:11;100306.55;;;22.74;96.06
61697;BME280;47610;52.252;20.922;2023-06-22T23:06:14;100294.41;;;22.76;94.81
61697;BME280;47610;52.252;20.922;2023-06-22T23:11:18;100288.69;;;22.69;94.79
61697;BME280;47610;52.252;20.922;2023-06-22T23:16:21;100277.69;;;22.71;94.71
61697;BME280;47610;52.252;20.922;2023-06-22T23:21:25;100276.02;;;22.82;94.28
61697;BME280;47610;52.252;20.922;2023-06-22T23:26:28;100273.59;;;22.93;94.01
61697;BME280;47610;52.252;20.922;2023-06-22T23:31:31;100261.87;;;22.98;94.03
61697;BME280;47610;52.252;20.922;2023-06-22T23:36:34;100257.73;;;22.81;94.38
61697;BME280;47610;52.252;20.922;2023-06-22T23:41:38;100246.45;;;22.69;95.58
61697;BME280;47610;52.252;20.922;2023-06-22T23:46:41;100234.36;;;22.49;97.40
61697;BME280;47610;52.252;20.922;2023-06-22T23:51:44;100225.86;;;22.27;99.82
61697;BME280;47610;52.252;20.922;2023-06-22T23:56:48;100226.96;;;22.08;100.00
